Time;durP1;ratioP1;P1;durP2;ratioP2;P2;SDS_P1;SDS_P2;PMS_P1;PMS_P2;Temp;Humidity;BMP_temperature;BMP_pressure;BME280_temperature;BME280_humidity;BME280_pressure;Samples;Min_cycle;Max_cycle;Signal;HPM_P1;HPM_P2
2023/06/24 00:01:29;;;;;;;4.53;4.13;;;19.90;56.70;;;;;;5069419;28;20074;-68
2023/06/24 00:03:54;;;;;;;7.28;4.95;;;19.90;56.70;;;;;;5069552;28;20036;-68
2023/06/24 00:06:22;;;;;;;4.95;4.45;;;19.90;56.80;;;;;;5070713;28;20535;-68
2023/06/24 00:08:49;;;;;;;5.28;4.20;;;19.80;56.80;;;;;;5070082;28;20044;-68
2023/06/24 00:11:15;;;;;;;5.72;5.15;;;19.80;56.90;;;;;;5070432;28;20049;-68
2023/06/24 00:13:42;;;;;;;5.55;5.05;;;19.80;56.90;;;;;;5068310;28;20037;-68
2023/06/24 00:16:08;;;;;;;5.40;4.90;;;19.80;57.00;;;;;;5069362;28;20051;-67
2023/06/24 00:18:35;;;;;;;5.55;4.90;;;19.70;57.00;;;;;;5073191;28;20036;-68
2023/06/24 00:21:01;;;;;;;4.75;4.22;;;19.80;57.30;;;;;;5072345;28;20155;-67
2023/06/24 00:23:28;;;;;;;5.15;4.65;;;19.70;57.20;;;;;;5074195;28;20032;-67
2023/06/24 00:25:54;;;;;;;5.45;4.38;;;19.70;57.30;;;;;;5072851;28;20064;-67
2023/06/24 00:28:21;;;;;;;4.72;4.00;;;19.70;57.40;;;;;;5073862;28;20035;-67
2023/06/24 00:30:48;;;;;;;6.05;4.22;;;19.70;57.40;;;;;;5072923;28;20119;-67
2023/06/24 00:33:14;;;;;;;4.68;4.18;;;19.60;57.50;;;;;;5072746;28;20040;-67
2023/06/24 00:35:40;;;;;;;5.38;4.03;;;19.60;57.50;;;;;;5072540;28;20514;-67
2023/06/24 00:38:06;;;;;;;4.55;4.07;;;19.60;57.60;;;;;;5072625;28;20041;-67
2023/06/24 00:40:33;;;;;;;4.75;4.22;;;19.60;57.70;;;;;;5072403;28;20491;-67
2023/06/24 00:43:01;;;;;;;7.30;5.55;;;19.50;57.80;;;;;;5073159;28;20032;-67
2023/06/24 00:45:27;;;;;;;5.47;4.30;;;19.50;57.90;;;;;;5072721;28;20488;-67
2023/06/24 00:47:54;;;;;;;5.57;4.68;;;19.40;57.80;;;;;;5072051;28;20029;-66
2023/06/24 00:50:20;;;;;;;6.22;5.05;;;19.50;58.20;;;;;;5071294;28;20828;-66
2023/06/24 00:52:47;;;;;;;6.57;4.60;;;19.40;57.90;;;;;;5073324;28;20097;-68
2023/06/24 00:55:15;;;;;;;6.50;5.90;;;19.40;58.00;;;;;;5072497;28;20048;-67
2023/06/24 00:57:44;;;;;;;7.13;4.68;;;19.40;58.20;;;;;;5072068;28;20040;-67
2023/06/24 01:00:16;;;;;;;5.63;5.00;;;19.40;58.30;;;;;;5069755;28;20041;-67
2023/06/24 01:02:43;;;;;;;4.75;4.25;;;19.30;58.30;;;;;;5071544;28;20038;-67
2023/06/24 01:05:10;;;;;;;6.03;4.75;;;19.30;58.30;;;;;;5055431;28;20040;-67
2023/06/24 01:07:38;;;;;;;5.10;4.28;;;19.30;58.40;;;;;;5069663;28;20032;-68
2023/06/24 01:10:05;;;;;;;6.20;5.20;;;19.30;58.50;;;;;;5072284;28;20047;-68
2023/06/24 01:12:35;;;;;;;5.50;4.85;;;19.20;58.60;;;;;;5071784;28;20138;-68
2023/06/24 01:15:02;;;;;;;6.40;5.40;;;19.20;58.60;;;;;;5071606;28;20036;-68
2023/06/24 01:17:53;;;;;;;5.88;5.28;;;19.20;58.70;;;;;;5071071;28;20032;-68
2023/06/24 01:20:36;;;;;;;6.57;5.85;;;19.10;59.10;;;;;;5070548;28;20445;-68
2023/06/24 01:23:13;;;;;;;5.63;4.30;;;19.10;59.00;;;;;;5071703;28;20048;-68
2023/06/24 01:25:59;;;;;;;4.90;4.40;;;19.00;59.00;;;;;;5071724;28;20041;-68
2023/06/24 01:28:56;;;;;;;5.95;5.35;;;19.00;59.10;;;;;;5070768;28;20044;-68
2023/06/24 01:31:43;;;;;;;5.20;4.45;;;18.90;59.10;;;;;;5071371;28;20048;-68
2023/06/24 01:34:25;;;;;;;5.38;4.88;;;18.90;59.10;;;;;;5072724;28;20036;-68
2023/06/24 01:37:13;;;;;;;6.75;5.72;;;18.90;59.40;;;;;;5069503;28;20032;-68
2023/06/24 01:39:56;;;;;;;5.90;5.38;;;18.80;59.40;;;;;;5071578;28;20099;-68
2023/06/24 01:42:22;;;;;;;6.43;5.50;;;18.80;59.60;;;;;;5088173;28;20459;-68
2023/06/24 01:44:50;;;;;;;7.03;6.35;;;18.80;59.70;;;;;;5071134;28;20052;-68
2023/06/24 01:47:25;;;;;;;6.20;5.25;;;18.80;59.90;;;;;;5070946;28;20132;-69
2023/06/24 01:49:54;;;;;;;6.57;5.97;;;18.70;59.90;;;;;;5085598;28;20127;-67
2023/06/24 01:52:22;;;;;;;6.25;5.65;;;18.70;60.00;;;;;;5071263;28;20041;-67
2023/06/24 01:54:49;;;;;;;5.40;4.85;;;18.70;60.20;;;;;;5071241;28;20106;-67
2023/06/24 01:57:16;;;;;;;6.28;5.40;;;18.70;60.20;;;;;;5071323;28;20052;-67
2023/06/24 01:59:45;;;;;;;6.43;5.72;;;18.70;60.30;;;;;;5053049;28;20048;-67
2023/06/24 02:02:12;;;;;;;7.20;5.53;;;18.60;60.30;;;;;;5070427;28;20074;-67
2023/06/24 02:04:39;;;;;;;6.22;5.05;;;18.60;60.40;;;;;;5068940;28;20048;-67
2023/06/24 02:07:06;;;;;;;5.45;4.95;;;18.60;60.40;;;;;;5085775;28;20115;-67
2023/06/24 02:09:33;;;;;;;7.75;6.95;;;18.60;60.30;;;;;;5070967;28;20078;-67
2023/06/24 02:12:02;;;;;;;5.65;5.05;;;18.60;60.50;;;;;;5069919;28;20772;-67
2023/06/24 02:14:30;;;;;;;7.07;6.05;;;18.60;60.50;;;;;;5071203;28;20043;-67
2023/06/24 02:16:59;;;;;;;7.22;5.45;;;18.60;60.60;;;;;;5070570;28;20044;-67
2023/06/24 02:19:28;;;;;;;6.38;5.75;;;18.50;60.50;;;;;;5070408;28;20050;-67
2023/06/24 02:21:57;;;;;;;6.18;5.57;;;18.50;60.50;;;;;;5070581;28;20079;-68
2023/06/24 02:24:24;;;;;;;5.05;4.55;;;18.50;60.50;;;;;;5070451;28;20032;-67
2023/06/24 02:26:51;;;;;;;5.57;5.00;;;18.50;60.50;;;;;;5071159;28;20044;-67
2023/06/24 02:29:17;;;;;;;5.75;5.25;;;18.50;60.70;;;;;;5070337;28;20079;-67
2023/06/24 02:31:43;;;;;;;5.63;5.00;;;18.50;60.60;;;;;;5073027;28;20025;-68
2023/06/24 02:34:09;;;;;;;5.97;5.28;;;18.50;60.60;;;;;;5071556;28;20134;-67
2023/06/24 02:36:35;;;;;;;6.38;5.32;;;18.40;60.70;;;;;;5071759;28;20119;-67
2023/06/24 02:39:01;;;;;;;6.25;5.57;;;18.40;60.60;;;;;;5070339;28;20531;-68
2023/06/24 02:41:27;;;;;;;5.60;4.75;;;18.40;60.70;;;;;;5069490;28;20044;-67
2023/06/24 02:43:52;;;;;;;6.00;5.13;;;18.40;60.70;;;;;;5069993;28;20121;-67
2023/06/24 02:46:20;;;;;;;5.90;5.30;;;18.30;60.60;;;;;;5070379;28;20087;-67
2023/06/24 02:48:49;;;;;;;6.03;5.43;;;18.40;60.70;;;;;;5070548;28;20114;-67
2023/06/24 02:51:15;;;;;;;6.35;5.07;;;18.40;60.80;;;;;;5070354;28;20056;-67
2023/06/24 02:53:42;;;;;;;6.32;5.72;;;18.30;60.70;;;;;;5068081;28;20036;-68
2023/06/24 02:56:09;;;;;;;5.55;4.97;;;18.40;60.80;;;;;;5070047;28;20040;-68
2023/06/24 02:58:39;;;;;;;6.25;5.30;;;18.30;60.80;;;;;;5069985;28;20115;-67
2023/06/24 03:01:08;;;;;;;6.38;5.78;;;18.30;60.90;;;;;;5069839;28;20036;-67
2023/06/24 03:03:35;;;;;;;8.35;7.15;;;18.30;60.90;;;;;;5068516;28;20119;-68
2023/06/24 03:06:02;;;;;;;6.55;5.93;;;18.30;61.00;;;;;;5070319;28;20029;-67
2023/06/24 03:08:28;;;;;;;6.45;5.80;;;18.20;61.00;;;;;;5069655;28;20044;-67
2023/06/24 03:10:56;;;;;;;7.70;7.00;;;18.20;61.10;;;;;;5070068;28;20045;-68
2023/06/24 03:13:22;;;;;;;6.75;6.03;;;18.20;61.20;;;;;;5069747;28;20059;-68
2023/06/24 03:15:48;;;;;;;8.65;6.18;;;18.20;61.20;;;;;;5070382;28;20036;-67
2023/06/24 03:18:14;;;;;;;7.28;6.60;;;18.20;61.10;;;;;;5070322;28;20131;-67
2023/06/24 03:20:40;;;;;;;6.80;5.60;;;18.10;61.20;;;;;;5069683;28;20052;-67
2023/06/24 03:23:06;;;;;;;7.10;6.40;;;18.10;61.20;;;;;;5069924;28;20051;-67
2023/06/24 03:25:33;;;;;;;6.60;5.45;;;18.10;61.20;;;;;;5069601;28;20043;-67
2023/06/24 03:28:00;;;;;;;6.47;5.85;;;18.10;61.30;;;;;;5069994;28;20063;-67
2023/06/24 03:30:26;;;;;;;6.75;6.05;;;18.10;61.30;;;;;;5069880;28;20052;-67
2023/06/24 03:32:52;;;;;;;6.57;5.85;;;18.00;61.40;;;;;;5067648;28;20127;-67
2023/06/24 03:35:18;;;;;;;6.30;5.70;;;18.00;61.30;;;;;;5069374;28;20484;-67
2023/06/24 03:37:44;;;;;;;7.10;6.25;;;18.00;61.30;;;;;;5053134;28;20044;-67
2023/06/24 03:40:10;;;;;;;6.35;5.68;;;18.00;61.40;;;;;;5069719;28;20045;-68
2023/06/24 03:42:36;;;;;;;9.18;6.82;;;18.00;61.40;;;;;;5069849;28;20097;-67
2023/06/24 03:45:03;;;;;;;8.10;6.28;;;18.00;61.60;;;;;;5050349;28;20040;-67
2023/06/24 03:47:29;;;;;;;6.40;5.78;;;18.00;61.80;;;;;;5069593;28;20036;-67
2023/06/24 03:49:54;;;;;;;6.43;5.72;;;18.00;61.80;;;;;;5070862;28;20090;-67
2023/06/24 03:52:20;;;;;;;6.40;5.75;;;18.00;61.80;;;;;;5070328;28;20044;-67
2023/06/24 03:54:46;;;;;;;7.68;6.47;;;18.00;61.90;;;;;;5073334;28;20052;-67
2023/06/24 03:57:13;;;;;;;6.82;5.78;;;18.00;61.90;;;;;;5054128;28;20040;-67
2023/06/24 03:59:38;;;;;;;7.00;6.30;;;18.00;61.90;;;;;;5073128;28;20052;-68
2023/06/24 04:02:08;;;;;;;7.32;6.63;;;18.00;62.00;;;;;;5073673;28;20032;-67
2023/06/24 04:04:37;;;;;;;7.72;7.00;;;17.90;62.20;;;;;;5072798;28;20048;-68
2023/06/24 04:07:05;;;;;;;8.20;7.40;;;17.90;62.20;;;;;;5071488;28;20032;-67
2023/06/24 04:09:34;;;;;;;11.05;9.93;;;17.90;62.30;;;;;;5073392;28;20043;-67
2023/06/24 04:11:59;;;;;;;15.27;12.25;;;17.90;62.70;;;;;;5072840;28;20050;-67
2023/06/24 04:14:25;;;;;;;13.30;12.00;;;17.90;63.10;;;;;;5072897;28;20036;-67
2023/06/24 04:16:51;;;;;;;12.65;11.45;;;17.90;63.70;;;;;;5072982;28;20036;-67
2023/06/24 04:19:16;;;;;;;13.93;12.52;;;17.90;64.00;;;;;;5056469;28;20115;-67
2023/06/24 04:21:42;;;;;;;15.30;13.30;;;17.80;64.40;;;;;;5072897;28;20630;-68
2023/06/24 04:24:08;;;;;;;14.05;12.57;;;17.80;64.70;;;;;;5056697;28;20039;-68
2023/06/24 04:26:33;;;;;;;14.10;12.70;;;17.70;64.90;;;;;;5074007;28;20549;-67
2023/06/24 04:28:59;;;;;;;15.55;13.95;;;17.60;65.30;;;;;;5056585;28;20047;-68
2023/06/24 04:31:25;;;;;;;14.73;13.23;;;17.60;65.90;;;;;;5072861;28;20036;-67
2023/06/24 04:33:51;;;;;;;14.70;13.20;;;17.50;66.10;;;;;;5072747;28;20040;-67
2023/06/24 04:36:17;;;;;;;15.82;14.18;;;17.50;66.50;;;;;;5072874;28;20101;-67
2023/06/24 04:38:42;;;;;;;15.00;13.48;;;17.50;66.80;;;;;;5072415;28;20552;-67
2023/06/24 04:41:08;;;;;;;15.95;14.27;;;17.40;67.20;;;;;;5072521;28;20033;-67
2023/06/24 04:43:35;;;;;;;17.55;15.23;;;17.40;67.70;;;;;;5073802;28;20051;-67
2023/06/24 04:46:01;;;;;;;15.45;13.93;;;17.40;68.10;;;;;;5072665;28;20040;-67
2023/06/24 04:48:27;;;;;;;18.10;15.07;;;17.30;68.60;;;;;;5072979;28;20036;-67
2023/06/24 04:50:54;;;;;;;17.17;15.15;;;17.30;69.00;;;;;;5072416;28;20547;-67
2023/06/24 04:53:21;;;;;;;14.13;12.57;;;17.30;69.50;;;;;;5072952;28;20040;-67
2023/06/24 04:55:47;;;;;;;12.13;10.93;;;17.30;69.70;;;;;;5072258;28;20044;-67
2023/06/24 04:58:12;;;;;;;15.50;11.88;;;17.30;69.70;;;;;;5072380;28;20044;-67
2023/06/24 05:00:38;;;;;;;14.07;12.68;;;17.30;69.70;;;;;;5055385;28;20127;-67
2023/06/24 05:03:04;;;;;;;14.30;12.80;;;17.30;69.80;;;;;;5071957;28;20039;-67
2023/06/24 05:05:30;;;;;;;14.18;12.77;;;17.40;70.30;;;;;;5071859;28;20044;-67
2023/06/24 05:07:56;;;;;;;14.13;12.60;;;17.40;70.50;;;;;;5071990;28;20044;-67
2023/06/24 05:10:22;;;;;;;17.25;15.48;;;17.50;71.00;;;;;;5072259;28;20127;-67
2023/06/24 05:12:48;;;;;;;15.93;14.32;;;17.60;71.60;;;;;;5071982;28;20040;-67
2023/06/24 05:15:13;;;;;;;16.67;14.98;;;17.70;72.10;;;;;;5071921;28;20041;-67
2023/06/24 05:17:39;;;;;;;16.13;14.52;;;17.80;72.30;;;;;;5054940;28;20039;-67
2023/06/24 05:20:06;;;;;;;15.80;14.15;;;18.10;72.60;;;;;;5069722;28;20147;-67
2023/06/24 05:22:31;;;;;;;15.77;14.13;;;18.40;71.80;;;;;;5071815;28;20243;-67
2023/06/24 05:24:57;;;;;;;17.35;14.63;;;18.60;71.50;;;;;;5071747;28;20170;-67
2023/06/24 05:27:23;;;;;;;15.80;14.10;;;18.90;71.10;;;;;;5071306;28;20044;-67
2023/06/24 05:29:49;;;;;;;14.55;13.23;;;19.10;70.50;;;;;;5071851;28;20127;-67
2023/06/24 05:32:17;;;;;;;15.70;14.13;;;19.40;70.00;;;;;;5071475;28;20089;-67
2023/06/24 05:34:43;;;;;;;14.85;13.27;;;19.70;69.30;;;;;;5071735;28;20116;-67
2023/06/24 05:37:11;;;;;;;13.63;12.23;;;20.00;68.50;;;;;;5072532;28;20040;-67
2023/06/24 05:39:37;;;;;;;13.65;12.30;;;20.40;67.90;;;;;;5071519;28;20044;-67
2023/06/24 05:42:03;;;;;;;13.82;12.18;;;20.80;66.50;;;;;;5071153;28;20029;-67
2023/06/24 05:44:29;;;;;;;14.05;12.20;;;21.10;65.50;;;;;;5071655;28;20064;-67
2023/06/24 05:46:55;;;;;;;15.00;12.48;;;21.40;64.30;;;;;;5072387;28;20467;-67
2023/06/24 05:49:20;;;;;;;13.80;12.40;;;21.80;63.30;;;;;;5071501;28;20044;-67
2023/06/24 05:51:46;;;;;;;13.55;11.65;;;22.00;62.30;;;;;;5071339;28;20398;-67
2023/06/24 05:54:12;;;;;;;15.38;12.68;;;22.30;61.50;;;;;;5071293;28;20064;-67
2023/06/24 05:56:37;;;;;;;13.23;11.55;;;22.60;60.50;;;;;;5070928;28;20071;-67
2023/06/24 05:59:03;;;;;;;12.25;10.48;;;23.00;60.20;;;;;;5070963;28;20056;-67
2023/06/24 06:01:29;;;;;;;11.70;10.60;;;23.50;59.20;;;;;;5070922;28;20094;-67
2023/06/24 06:03:54;;;;;;;13.40;11.95;;;24.00;57.90;;;;;;5087570;28;20039;-67
2023/06/24 06:06:20;;;;;;;12.32;10.93;;;24.50;56.70;;;;;;5071384;28;20037;-67
2023/06/24 06:08:46;;;;;;;10.15;9.23;;;24.80;55.80;;;;;;5054665;28;20464;-67
2023/06/24 06:11:12;;;;;;;15.45;12.00;;;25.20;54.70;;;;;;5070699;28;20048;-67
2023/06/24 06:13:38;;;;;;;11.60;10.40;;;25.60;53.90;;;;;;5072042;28;20028;-67
2023/06/24 06:16:04;;;;;;;10.70;9.50;;;26.00;52.90;;;;;;5069607;28;20051;-68
2023/06/24 06:18:29;;;;;;;10.50;9.50;;;26.40;51.90;;;;;;5073154;28;20465;-67
2023/06/24 06:20:55;;;;;;;9.23;8.30;;;26.60;51.10;;;;;;5070577;28;20044;-68
2023/06/24 06:23:21;;;;;;;9.73;8.80;;;27.00;50.70;;;;;;5070543;28;20041;-68
2023/06/24 06:25:46;;;;;;;12.38;9.32;;;27.30;49.20;;;;;;5070587;28;20036;-67
2023/06/24 06:28:12;;;;;;;9.07;8.18;;;27.60;48.30;;;;;;5070288;28;20123;-68
2023/06/24 06:30:38;;;;;;;9.43;8.45;;;28.00;47.90;;;;;;5068075;28;20041;-67
2023/06/24 06:33:04;;;;;;;9.02;8.13;;;28.30;46.90;;;;;;5070589;28;20194;-68
2023/06/24 06:35:30;;;;;;;10.27;9.00;;;28.60;46.10;;;;;;5070503;28;20511;-68
2023/06/24 06:37:58;;;;;;;8.57;7.68;;;28.80;45.70;;;;;;5070368;28;20174;-67
2023/06/24 06:40:23;;;;;;;9.43;8.52;;;29.00;44.60;;;;;;5069995;28;20040;-67
2023/06/24 06:42:49;;;;;;;8.68;7.60;;;29.20;44.40;;;;;;5053812;28;20036;-67
2023/06/24 06:45:15;;;;;;;7.18;6.38;;;29.50;43.90;;;;;;5070593;28;20130;-68
2023/06/24 06:47:41;;;;;;;8.18;7.38;;;29.60;43.10;;;;;;5070401;28;20455;-80
2023/06/24 06:50:07;;;;;;;7.72;6.97;;;29.90;42.40;;;;;;5070490;28;20040;-68
2023/06/24 06:52:33;;;;;;;8.55;7.60;;;30.10;42.00;;;;;;5070007;28;20074;-68
2023/06/24 06:54:59;;;;;;;8.45;6.32;;;30.10;41.50;;;;;;5069958;28;20045;-67
2023/06/24 06:57:25;;;;;;;6.68;5.97;;;30.10;41.80;;;;;;5070375;28;20058;-68
2023/06/24 06:59:51;;;;;;;7.05;6.18;;;30.00;42.10;;;;;;5070220;28;20055;-68
2023/06/24 07:02:20;;;;;;;7.65;6.88;;;29.90;41.60;;;;;;5070250;28;20094;-68
2023/06/24 07:04:47;;;;;;;9.07;7.18;;;29.80;41.70;;;;;;5071173;28;20445;-68
2023/06/24 07:07:13;;;;;;;8.35;7.55;;;29.70;42.00;;;;;;5070743;28;20105;-68
2023/06/24 07:09:39;;;;;;;9.00;8.10;;;29.70;42.40;;;;;;5070684;28;20036;-68
2023/06/24 07:12:06;;;;;;;8.43;7.63;;;29.70;42.10;;;;;;5070444;28;20067;-68
2023/06/24 07:14:32;;;;;;;8.45;7.65;;;29.70;42.20;;;;;;5067470;28;20036;-68
2023/06/24 07:16:58;;;;;;;9.15;8.25;;;29.70;42.30;;;;;;5070592;28;20037;-68
2023/06/24 07:19:23;;;;;;;9.13;8.23;;;29.80;41.90;;;;;;5070334;28;20040;-68
2023/06/24 07:21:49;;;;;;;9.02;8.10;;;30.00;41.70;;;;;;5070619;28;20056;-68
2023/06/24 07:24:15;;;;;;;8.35;7.47;;;30.10;41.70;;;;;;5053999;28;20044;-68
2023/06/24 07:26:40;;;;;;;8.15;7.35;;;30.10;41.70;;;;;;5071641;28;20032;-68
2023/06/24 07:29:07;;;;;;;7.22;6.53;;;30.30;41.30;;;;;;5073826;28;20494;-68
2023/06/24 07:31:34;;;;;;;6.88;6.18;;;30.30;41.00;;;;;;5074372;28;20044;-68
2023/06/24 07:33:59;;;;;;;6.13;5.53;;;30.30;41.00;;;;;;5074478;28;20480;-68
2023/06/24 07:36:25;;;;;;;7.07;5.90;;;30.20;41.20;;;;;;5074409;28;20045;-68
2023/06/24 07:38:51;;;;;;;5.95;4.95;;;30.20;41.20;;;;;;5057985;28;20055;-68
2023/06/24 07:41:16;;;;;;;6.75;5.57;;;30.20;41.10;;;;;;5074260;28;20115;-68
2023/06/24 07:43:42;;;;;;;6.07;4.68;;;30.20;40.40;;;;;;5074118;28;20036;-68
2023/06/24 07:46:08;;;;;;;5.25;4.68;;;30.20;40.50;;;;;;5074637;28;20036;-68
2023/06/24 07:48:34;;;;;;;6.88;4.88;;;30.10;40.30;;;;;;5074487;28;20028;-68
2023/06/24 07:51:00;;;;;;;4.93;4.40;;;30.20;40.40;;;;;;5074364;28;20466;-68
2023/06/24 07:53:25;;;;;;;6.68;5.05;;;30.20;40.00;;;;;;5075392;28;20399;-69
2023/06/24 07:55:51;;;;;;;5.07;4.32;;;30.20;39.20;;;;;;5075149;28;20124;-67
2023/06/24 07:58:19;;;;;;;5.32;3.70;;;30.20;39.10;;;;;;5057317;28;20048;-67
2023/06/24 08:00:45;;;;;;;5.63;4.22;;;30.20;39.40;;;;;;5073374;28;20116;-67
2023/06/24 08:03:11;;;;;;;4.35;3.83;;;30.20;38.80;;;;;;5057098;28;20063;-68
2023/06/24 08:05:38;;;;;;;3.97;3.13;;;30.30;39.00;;;;;;5073683;28;20422;-68
2023/06/24 08:08:05;;;;;;;5.93;3.17;;;30.30;37.70;;;;;;5073533;28;20040;-67
2023/06/24 08:10:31;;;;;;;3.05;2.75;;;30.20;37.90;;;;;;5073269;28;20036;-67
2023/06/24 08:12:56;;;;;;;5.05;3.33;;;30.30;37.90;;;;;;5074586;28;20086;-67
2023/06/24 08:15:22;;;;;;;3.78;3.10;;;30.30;38.10;;;;;;5077708;28;20101;-68
2023/06/24 08:17:55;;;;;;;4.55;3.85;;;30.30;38.10;;;;;;5081268;28;20403;-68
2023/06/24 08:20:21;;;;;;;4.77;3.33;;;30.40;38.30;;;;;;5064155;28;20091;-68
2023/06/24 08:22:47;;;;;;;4.35;3.60;;;30.50;38.40;;;;;;5077172;28;20282;-68
2023/06/24 08:25:13;;;;;;;4.10;3.05;;;30.50;38.00;;;;;;5082505;28;20032;-68
2023/06/24 08:27:39;;;;;;;4.15;3.28;;;30.60;37.60;;;;;;5076411;28;20040;-68
2023/06/24 08:30:06;;;;;;;4.82;3.03;;;30.60;37.40;;;;;;5062032;28;20048;-68
2023/06/24 08:32:32;;;;;;;4.93;3.05;;;30.60;37.20;;;;;;5097862;28;20044;-68
2023/06/24 08:34:58;;;;;;;4.43;3.05;;;30.70;37.70;;;;;;5084690;28;20032;-68
2023/06/24 08:37:24;;;;;;;5.60;3.33;;;30.80;37.70;;;;;;5076064;28;20085;-68
2023/06/24 08:39:50;;;;;;;3.97;2.75;;;30.90;37.10;;;;;;5082985;28;20044;-68
2023/06/24 08:42:15;;;;;;;4.35;2.92;;;31.00;36.90;;;;;;5081505;28;20040;-68
2023/06/24 08:44:41;;;;;;;2.67;1.90;;;31.10;36.50;;;;;;5085993;28;20094;-68
2023/06/24 08:47:07;;;;;;;2.80;2.13;;;31.10;36.10;;;;;;5078092;28;20035;-68
2023/06/24 08:49:36;;;;;;;3.17;1.98;;;31.10;35.30;;;;;;5082043;28;20135;-68
2023/06/24 08:52:12;;;;;;;2.72;2.00;;;31.30;36.00;;;;;;5081515;28;20043;-68
2023/06/24 08:54:40;;;;;;;2.83;2.20;;;31.50;36.60;;;;;;5081207;28;20040;-68
2023/06/24 08:57:07;;;;;;;3.33;2.10;;;31.60;36.50;;;;;;5076164;28;20097;-68
2023/06/24 08:59:37;;;;;;;10.85;3.70;;;31.90;36.80;;;;;;5081811;28;20044;-68
2023/06/24 09:02:03;;;;;;;4.22;3.42;;;32.10;36.40;;;;;;5077801;28;20097;-68
2023/06/24 09:04:28;;;;;;;4.25;2.88;;;32.20;36.20;;;;;;5082260;28;20040;-68
2023/06/24 09:06:54;;;;;;;3.30;2.65;;;32.20;36.80;;;;;;5069629;28;20506;-68
2023/06/24 09:09:21;;;;;;;4.03;2.88;;;32.30;37.20;;;;;;5072396;28;20040;-68
2023/06/24 09:11:59;;;;;;;4.50;3.50;;;32.40;36.80;;;;;;5073409;28;20047;-68
2023/06/24 09:14:26;;;;;;;5.80;3.38;;;32.70;36.70;;;;;;5073188;28;20045;-68
2023/06/24 09:17:09;;;;;;;4.85;3.28;;;32.80;36.90;;;;;;5073421;28;20126;-68
2023/06/24 09:19:37;;;;;;;5.32;2.90;;;32.90;36.20;;;;;;5073026;28;20202;-68
2023/06/24 09:22:05;;;;;;;4.07;3.20;;;33.00;36.70;;;;;;5056217;28;20055;-68
2023/06/24 09:24:32;;;;;;;4.82;3.25;;;33.00;36.70;;;;;;5056466;28;20032;-67
2023/06/24 09:27:00;;;;;;;4.78;3.20;;;33.20;36.40;;;;;;5073153;28;20028;-67
2023/06/24 09:29:33;;;;;;;6.03;3.65;;;33.20;35.80;;;;;;5072837;28;20029;-67
2023/06/24 09:31:59;;;;;;;4.43;3.38;;;33.20;35.50;;;;;;5072727;28;20111;-67
2023/06/24 09:34:28;;;;;;;4.10;3.67;;;33.10;35.50;;;;;;5055879;28;20045;-67
2023/06/24 09:36:58;;;;;;;5.28;3.38;;;33.00;35.90;;;;;;5072757;28;20041;-67
2023/06/24 09:39:29;;;;;;;4.60;4.20;;;33.00;36.00;;;;;;5072559;28;20036;-67
2023/06/24 09:42:00;;;;;;;6.43;4.15;;;32.90;36.20;;;;;;5072575;28;20162;-67
2023/06/24 09:44:27;;;;;;;4.88;4.18;;;32.90;36.50;;;;;;5072250;28;20032;-67
2023/06/24 09:46:53;;;;;;;5.47;4.25;;;32.90;36.40;;;;;;5072614;28;20040;-67
2023/06/24 09:49:19;;;;;;;5.70;3.78;;;32.90;35.70;;;;;;5072475;28;20059;-67
2023/06/24 09:51:47;;;;;;;8.35;4.80;;;32.90;35.90;;;;;;5071827;28;20040;-67
2023/06/24 09:54:15;;;;;;;6.05;4.22;;;32.80;35.80;;;;;;5055529;28;20075;-67
2023/06/24 09:56:48;;;;;;;5.28;4.07;;;32.50;36.40;;;;;;5072243;28;20044;-67
2023/06/24 09:59:19;;;;;;;4.85;3.60;;;32.30;36.30;;;;;;5072164;28;20578;-67
2023/06/24 10:01:46;;;;;;;7.07;4.85;;;32.10;37.20;;;;;;5072005;28;20041;-67
2023/06/24 10:04:19;;;;;;;8.75;5.43;;;32.00;37.40;;;;;;5071993;28;20048;-67
2023/06/24 10:06:46;;;;;;;6.40;4.28;;;32.10;37.20;;;;;;5072312;28;20111;-67
2023/06/24 10:09:13;;;;;;;4.70;4.20;;;32.10;37.30;;;;;;5072387;28;20418;-67
2023/06/24 10:11:39;;;;;;;5.60;4.70;;;32.10;37.40;;;;;;5071718;28;20105;-67
2023/06/24 10:14:05;;;;;;;4.95;3.92;;;32.10;37.60;;;;;;5088611;28;20048;-67
2023/06/24 10:16:31;;;;;;;5.80;4.47;;;32.20;37.80;;;;;;5072059;28;20048;-67
2023/06/24 10:19:02;;;;;;;5.35;4.80;;;32.20;37.80;;;;;;5071760;28;20402;-67
2023/06/24 10:21:53;;;;;;;5.97;3.80;;;32.30;37.60;;;;;;5071516;28;20052;-66
2023/06/24 10:24:33;;;;;;;5.95;4.35;;;32.30;37.90;;;;;;5071673;28;20045;-67
2023/06/24 10:27:08;;;;;;;5.97;4.80;;;32.40;38.00;;;;;;5071532;28;20080;-67
2023/06/24 10:29:38;;;;;;;6.03;4.78;;;32.50;37.70;;;;;;5072731;28;20585;-66
2023/06/24 10:32:08;;;;;;;7.57;4.90;;;32.50;37.80;;;;;;5071660;28;21739;-67
2023/06/24 10:34:38;;;;;;;6.10;4.28;;;32.50;37.70;;;;;;5071162;28;20071;-66
2023/06/24 10:37:21;;;;;;;6.97;5.25;;;32.60;38.00;;;;;;5071524;28;20036;-66
2023/06/24 10:40:00;;;;;;;6.07;4.28;;;32.70;37.70;;;;;;5072457;28;20426;-67
2023/06/24 10:42:47;;;;;;;4.75;4.28;;;32.70;37.50;;;;;;5064747;28;20032;-67
2023/06/24 10:45:13;;;;;;;5.10;4.05;;;32.70;37.60;;;;;;5066338;28;20096;-67
2023/06/24 10:47:44;;;;;;;5.20;4.03;;;32.70;37.20;;;;;;5071457;28;20029;-67
2023/06/24 10:50:15;;;;;;;6.13;4.30;;;32.70;37.20;;;;;;5069155;28;20040;-66
2023/06/24 10:52:46;;;;;;;4.85;4.05;;;32.70;37.10;;;;;;5071339;28;20036;-67
2023/06/24 10:55:17;;;;;;;5.65;4.10;;;32.80;37.10;;;;;;5054622;28;20122;-66
2023/06/24 10:57:43;;;;;;;3.97;3.58;;;32.80;37.10;;;;;;5072447;28;20071;-66
2023/06/24 11:00:09;;;;;;;6.10;4.15;;;32.80;37.00;;;;;;5071232;28;20160;-66
2023/06/24 11:02:36;;;;;;;5.13;4.13;;;32.90;36.70;;;;;;5070950;28;20044;-66
2023/06/24 11:05:03;;;;;;;3.67;3.03;;;32.90;36.60;;;;;;5071413;28;20041;-67
2023/06/24 11:07:37;;;;;;;6.25;4.50;;;32.90;36.60;;;;;;5071214;28;20101;-67
2023/06/24 11:10:05;;;;;;;4.13;3.38;;;32.90;36.10;;;;;;5071227;28;20131;-66
2023/06/24 11:12:32;;;;;;;4.45;3.67;;;32.90;36.40;;;;;;5070965;28;20047;-66
2023/06/24 11:15:00;;;;;;;4.68;3.40;;;32.90;36.70;;;;;;5071117;28;20037;-67
2023/06/24 11:17:27;;;;;;;5.03;3.47;;;32.90;36.90;;;;;;5071051;28;20056;-67
2023/06/24 11:19:57;;;;;;;4.13;2.90;;;33.00;36.70;;;;;;5070707;28;20071;-66
2023/06/24 11:22:24;;;;;;;4.60;3.90;;;33.10;36.90;;;;;;5071135;28;20119;-66
2023/06/24 11:24:50;;;;;;;6.43;3.75;;;33.10;36.60;;;;;;5071159;28;20062;-67
2023/06/24 11:27:16;;;;;;;4.43;3.50;;;33.10;36.50;;;;;;5071196;28;20045;-66
2023/06/24 11:29:42;;;;;;;4.30;3.10;;;33.10;36.50;;;;;;5071240;28;20117;-66
2023/06/24 11:32:09;;;;;;;3.33;2.80;;;33.10;36.10;;;;;;5071377;28;20365;-67
2023/06/24 11:34:36;;;;;;;3.85;3.13;;;33.00;36.20;;;;;;5071116;28;20041;-66
2023/06/24 11:37:13;;;;;;;5.15;3.70;;;32.90;36.90;;;;;;5071059;28;20040;-66
2023/06/24 11:39:39;;;;;;;5.85;3.63;;;32.90;37.10;;;;;;5070922;28;20080;-66
2023/06/24 11:42:09;;;;;;;5.95;3.53;;;32.90;36.90;;;;;;5070673;28;20036;-66
2023/06/24 11:44:35;;;;;;;5.20;3.58;;;32.80;36.70;;;;;;5070997;28;20115;-67
2023/06/24 11:47:08;;;;;;;4.60;3.50;;;32.70;36.70;;;;;;5070375;28;20052;-67
2023/06/24 11:49:54;;;;;;;4.25;3.38;;;32.70;37.20;;;;;;5063848;28;20037;-67
2023/06/24 11:52:34;;;;;;;4.35;3.63;;;32.60;37.30;;;;;;5062274;28;20037;-67
2023/06/24 11:54:59;;;;;;;7.55;3.85;;;32.60;36.90;;;;;;5071059;28;20390;-67
2023/06/24 11:57:48;;;;;;;3.72;3.08;;;32.50;36.40;;;;;;5054088;28;20037;-67
2023/06/24 12:00:14;;;;;;;4.93;3.28;;;32.50;36.80;;;;;;5071648;28;20452;-69
2023/06/24 12:02:40;;;;;;;4.60;3.08;;;32.40;36.90;;;;;;5070918;28;20087;-68
2023/06/24 12:05:06;;;;;;;4.65;3.55;;;32.30;36.70;;;;;;5070742;28;20395;-68
2023/06/24 12:07:32;;;;;;;6.55;3.80;;;32.20;36.60;;;;;;5066282;28;20132;-68
2023/06/24 12:09:58;;;;;;;3.65;3.00;;;32.20;36.80;;;;;;5071988;28;20048;-68
2023/06/24 12:12:23;;;;;;;4.80;3.55;;;32.20;37.20;;;;;;5070645;28;20040;-68
2023/06/24 12:14:49;;;;;;;4.15;3.05;;;32.20;36.50;;;;;;5073628;28;20143;-68
2023/06/24 12:17:15;;;;;;;4.95;3.45;;;32.30;36.90;;;;;;5074518;28;20399;-68
2023/06/24 12:19:42;;;;;;;4.43;3.45;;;32.20;36.90;;;;;;5073980;28;20044;-68
2023/06/24 12:22:07;;;;;;;3.47;2.80;;;32.30;36.50;;;;;;5074489;28;20399;-68
2023/06/24 12:24:34;;;;;;;3.67;3.05;;;32.30;36.50;;;;;;5074606;28;20041;-68
2023/06/24 12:27:00;;;;;;;4.85;3.67;;;32.40;36.50;;;;;;5074522;28;20078;-68
2023/06/24 12:29:25;;;;;;;3.20;2.90;;;32.50;36.00;;;;;;5075854;28;20479;-69
2023/06/24 12:31:51;;;;;;;6.10;3.47;;;32.50;36.10;;;;;;5074499;28;20076;-68
2023/06/24 12:34:17;;;;;;;5.18;3.22;;;32.50;36.40;;;;;;5074248;28;20419;-68
2023/06/24 12:36:42;;;;;;;3.85;2.78;;;32.50;36.60;;;;;;5074271;28;20121;-68
2023/06/24 12:39:08;;;;;;;4.50;3.00;;;32.60;36.90;;;;;;5062975;28;20052;-68
2023/06/24 12:41:34;;;;;;;4.47;2.80;;;32.70;36.60;;;;;;5053991;28;20045;-68
2023/06/24 12:43:59;;;;;;;3.00;2.58;;;32.70;36.60;;;;;;5054315;28;20040;-69
2023/06/24 12:46:25;;;;;;;2.90;2.40;;;32.90;35.90;;;;;;5054112;28;20499;-69